Time;durP1;ratioP1;P1;durP2;ratioP2;P2;SDS_P1;SDS_P2;PMS_P1;PMS_P2;Temp;Humidity;BMP_temperature;BMP_pressure;BME280_temperature;BME280_humidity;BME280_pressure;Samples;Min_cycle;Max_cycle;Signal;HPM_P1;HPM_P2
2023/12/03 00:02:48;;;;;;;13.77;7.97;;;-3.50;99.90;;;;;;8364049;28;20238;-63
2023/12/03 00:06:50;;;;;;;12.07;6.93;;;-3.50;99.90;;;;;;8365458;28;20178;-68
2023/12/03 00:10:51;;;;;;;15.03;8.93;;;-3.50;99.90;;;;;;8374462;28;20209;-68
2023/12/03 00:14:52;;;;;;;14.03;8.80;;;-3.40;99.90;;;;;;8372861;28;20188;-69
2023/12/03 00:18:53;;;;;;;16.73;8.53;;;-3.40;99.90;;;;;;8371847;28;20238;-68
2023/12/03 00:22:54;;;;;;;15.07;8.60;;;-3.40;99.90;;;;;;8378834;28;20213;-70
2023/12/03 00:26:56;;;;;;;16.53;8.47;;;-3.40;99.90;;;;;;8377434;28;20344;-68
2023/12/03 00:31:00;;;;;;;16.43;10.10;;;-3.40;99.90;;;;;;8374287;28;20192;-69
2023/12/03 00:35:03;;;;;;;18.53;10.67;;;-3.40;99.90;;;;;;8378464;28;20224;-69
2023/12/03 00:39:04;;;;;;;14.47;9.33;;;-3.40;99.90;;;;;;8376752;28;20227;-67
2023/12/03 00:43:06;;;;;;;18.87;9.97;;;-3.40;99.90;;;;;;8371162;28;20204;-68
2023/12/03 00:47:09;;;;;;;16.30;10.00;;;-3.40;99.90;;;;;;8376014;28;20264;-68
2023/12/03 00:51:12;;;;;;;15.17;9.93;;;-3.40;99.90;;;;;;8371921;28;20174;-68
2023/12/03 00:55:13;;;;;;;16.80;10.30;;;-3.40;99.90;;;;;;8376154;28;20197;-68
2023/12/03 00:59:15;;;;;;;16.53;10.17;;;-3.40;99.90;;;;;;8374379;28;20189;-67
2023/12/03 01:03:17;;;;;;;18.30;10.37;;;-3.40;99.90;;;;;;8372594;28;20264;-69
2023/12/03 01:07:18;;;;;;;19.17;10.00;;;-3.30;99.90;;;;;;8368645;28;20203;-64
2023/12/03 01:11:18;;;;;;;18.53;9.97;;;-3.30;99.90;;;;;;8371793;28;20190;-62
2023/12/03 01:15:19;;;;;;;15.67;8.57;;;-3.30;99.90;;;;;;8373315;28;20223;-64
2023/12/03 01:19:20;;;;;;;18.73;9.40;;;-3.30;99.90;;;;;;8377953;28;20213;-68
2023/12/03 01:23:21;;;;;;;17.20;10.37;;;-3.30;99.90;;;;;;8372813;28;20187;-67
2023/12/03 01:27:21;;;;;;;14.40;8.60;;;-3.30;99.90;;;;;;8367316;28;20173;-66
2023/12/03 01:31:22;;;;;;;15.27;8.87;;;-3.30;99.90;;;;;;8375590;28;20185;-69
2023/12/03 01:35:23;;;;;;;17.83;9.20;;;-3.30;99.90;;;;;;8372349;28;20243;-69
2023/12/03 01:39:24;;;;;;;18.00;10.10;;;-3.30;99.90;;;;;;8374000;28;20212;-69
2023/12/03 01:43:25;;;;;;;18.33;9.80;;;-3.30;99.90;;;;;;8374349;28;20199;-68
2023/12/03 01:47:26;;;;;;;19.20;9.13;;;-3.30;99.90;;;;;;8377464;28;20183;-69
2023/12/03 01:51:28;;;;;;;17.10;9.57;;;-3.30;99.90;;;;;;8374843;28;20192;-68
2023/12/03 01:55:29;;;;;;;16.17;8.97;;;-3.30;99.90;;;;;;8380889;28;20188;-67
2023/12/03 01:59:34;;;;;;;16.00;8.77;;;-3.20;99.90;;;;;;8376298;28;20247;-68
2023/12/03 02:03:35;;;;;;;16.60;9.67;;;-3.20;99.90;;;;;;8377448;28;20189;-69
2023/12/03 02:07:37;;;;;;;16.83;9.63;;;-3.20;99.90;;;;;;8376589;28;20185;-68
2023/12/03 02:11:38;;;;;;;13.97;8.80;;;-3.20;99.90;;;;;;8375957;28;20195;-68
2023/12/03 02:15:38;;;;;;;17.07;9.37;;;-3.20;99.90;;;;;;8375110;28;20193;-69
2023/12/03 02:19:39;;;;;;;13.60;7.77;;;-3.20;99.90;;;;;;8377765;28;20212;-67
2023/12/03 02:23:40;;;;;;;16.47;8.70;;;-3.20;99.90;;;;;;8376447;28;20393;-67
2023/12/03 02:27:41;;;;;;;14.10;8.10;;;-3.20;99.90;;;;;;8367815;28;20181;-64
2023/12/03 02:31:41;;;;;;;16.77;9.50;;;-3.20;99.90;;;;;;8370280;28;20189;-63
2023/12/03 02:35:43;;;;;;;17.30;10.20;;;-3.20;99.90;;;;;;8371258;28;20189;-63
2023/12/03 02:39:45;;;;;;;17.57;9.23;;;-3.20;99.90;;;;;;8371770;28;20205;-63
2023/12/03 02:43:46;;;;;;;16.23;8.47;;;-3.20;99.90;;;;;;8365826;28;20202;-63
2023/12/03 02:47:47;;;;;;;16.40;9.10;;;-3.20;99.90;;;;;;8370595;28;20246;-64
2023/12/03 02:51:48;;;;;;;16.70;9.00;;;-3.20;99.90;;;;;;8369568;28;20196;-64
2023/12/03 02:55:49;;;;;;;16.73;9.60;;;-3.20;99.90;;;;;;8372241;28;20238;-63
2023/12/03 02:59:50;;;;;;;15.33;8.83;;;-3.10;99.90;;;;;;8369076;28;20236;-62
2023/12/03 03:03:51;;;;;;;18.53;10.13;;;-3.10;99.90;;;;;;8368620;28;20212;-62
2023/12/03 03:07:52;;;;;;;18.90;9.47;;;-3.10;99.90;;;;;;8370545;28;20185;-63
2023/12/03 03:11:57;;;;;;;14.93;9.23;;;-3.10;99.90;;;;;;8367530;28;20189;-64
2023/12/03 03:15:57;;;;;;;14.87;9.40;;;-3.10;99.90;;;;;;8368422;28;20190;-63
2023/12/03 03:19:58;;;;;;;16.93;9.47;;;-3.10;99.90;;;;;;8370486;28;20200;-62
2023/12/03 03:23:59;;;;;;;16.90;9.30;;;-3.10;99.90;;;;;;8371755;28;20185;-62
2023/12/03 03:28:00;;;;;;;16.90;8.67;;;-3.10;99.90;;;;;;8369453;28;20192;-63
2023/12/03 03:32:01;;;;;;;17.13;9.77;;;-3.00;99.90;;;;;;8371708;28;20269;-64
2023/12/03 03:36:02;;;;;;;17.77;10.17;;;-3.00;99.90;;;;;;8371442;28;20188;-63
2023/12/03 03:40:03;;;;;;;16.93;10.30;;;-3.00;99.90;;;;;;8387211;28;20211;-69
2023/12/03 03:44:03;;;;;;;18.40;9.53;;;-3.00;99.90;;;;;;8381705;28;20203;-69
2023/12/03 03:48:04;;;;;;;18.67;10.03;;;-3.00;99.90;;;;;;8377933;28;20193;-70
2023/12/03 03:52:05;;;;;;;14.13;8.73;;;-3.00;99.90;;;;;;8372308;28;20188;-69
2023/12/03 03:56:11;;;;;;;13.90;9.23;;;-3.00;99.90;;;;;;8367790;28;20478;-71
2023/12/03 04:00:12;;;;;;;17.07;9.10;;;-3.00;99.90;;;;;;8369396;28;20347;-70
2023/12/03 04:04:14;;;;;;;16.27;10.00;;;-3.00;99.90;;;;;;8367976;28;20193;-68
2023/12/03 04:08:15;;;;;;;15.63;10.23;;;-3.00;99.90;;;;;;8369239;28;20178;-69
2023/12/03 04:12:16;;;;;;;19.87;10.20;;;-3.00;99.90;;;;;;8371424;28;20185;-70
2023/12/03 04:16:23;;;;;;;15.90;9.63;;;-3.00;99.90;;;;;;8369503;28;20214;-70
2023/12/03 04:20:24;;;;;;;20.73;10.87;;;-3.00;99.90;;;;;;8369760;28;20282;-68
2023/12/03 04:24:25;;;;;;;20.83;11.37;;;-2.90;99.90;;;;;;8369988;28;20185;-68
2023/12/03 04:28:26;;;;;;;18.23;10.77;;;-2.90;99.90;;;;;;8370129;28;20571;-69
2023/12/03 04:32:27;;;;;;;20.33;11.63;;;-2.90;99.90;;;;;;8369090;28;20268;-70
2023/12/03 04:36:28;;;;;;;21.40;11.17;;;-2.90;99.90;;;;;;8372738;28;20214;-67
2023/12/03 04:40:29;;;;;;;17.57;10.77;;;-2.90;99.90;;;;;;8369666;28;20280;-69
2023/12/03 04:44:33;;;;;;;24.00;11.97;;;-2.90;99.90;;;;;;8371572;28;20245;-69
2023/12/03 04:48:36;;;;;;;19.73;10.97;;;-2.90;99.90;;;;;;8363415;28;20185;-68
2023/12/03 04:52:36;;;;;;;21.70;11.63;;;-2.90;99.90;;;;;;8372588;28;20185;-69
2023/12/03 04:56:37;;;;;;;19.87;12.17;;;-2.80;99.90;;;;;;8367982;28;20181;-69
2023/12/03 05:00:38;;;;;;;23.33;12.23;;;-2.80;99.90;;;;;;8369309;28;20302;-71
2023/12/03 05:04:39;;;;;;;25.33;12.87;;;-2.80;99.90;;;;;;8370579;28;20203;-69
2023/12/03 05:08:40;;;;;;;23.57;13.30;;;-2.80;99.90;;;;;;8367300;28;20217;-63
2023/12/03 05:12:40;;;;;;;19.87;11.93;;;-2.80;99.90;;;;;;8368855;28;20191;-62
2023/12/03 05:16:41;;;;;;;24.47;13.33;;;-2.80;99.90;;;;;;8371905;28;20189;-62
2023/12/03 05:20:42;;;;;;;21.37;11.97;;;-2.80;99.90;;;;;;8371060;28;20216;-64
2023/12/03 05:24:43;;;;;;;23.97;11.87;;;-2.80;99.90;;;;;;8374890;28;20223;-64
2023/12/03 05:28:44;;;;;;;19.70;11.17;;;-2.70;99.90;;;;;;8375693;28;20237;-63
2023/12/03 05:32:47;;;;;;;21.43;12.13;;;-2.70;99.90;;;;;;8368251;28;20186;-64
2023/12/03 05:36:48;;;;;;;22.60;12.47;;;-2.70;99.90;;;;;;8373602;28;20652;-64
2023/12/03 05:40:48;;;;;;;23.23;12.83;;;-2.70;99.90;;;;;;8372866;28;20210;-63
2023/12/03 05:44:49;;;;;;;21.37;10.93;;;-2.80;99.90;;;;;;8373871;28;20244;-64
2023/12/03 05:48:50;;;;;;;24.53;12.60;;;-2.70;99.90;;;;;;8373306;28;20182;-64
2023/12/03 05:52:51;;;;;;;22.03;12.33;;;-2.70;99.90;;;;;;8370991;28;20197;-63
2023/12/03 05:56:53;;;;;;;26.30;12.47;;;-2.60;99.90;;;;;;8371648;28;20221;-63
2023/12/03 06:00:53;;;;;;;22.53;11.70;;;-2.60;99.90;;;;;;8370119;28;20228;-62
2023/12/03 06:04:54;;;;;;;23.07;11.43;;;-2.70;99.90;;;;;;8371773;28;20577;-63
2023/12/03 06:08:55;;;;;;;22.30;11.77;;;-2.70;99.90;;;;;;8374508;28;20553;-63
2023/12/03 06:12:56;;;;;;;23.30;12.10;;;-2.60;99.90;;;;;;8372485;28;20301;-63
2023/12/03 06:16:57;;;;;;;24.80;11.63;;;-2.70;99.90;;;;;;8372629;28;20194;-64
2023/12/03 06:20:58;;;;;;;22.10;12.03;;;-2.60;99.90;;;;;;8376529;28;20217;-63
2023/12/03 06:24:59;;;;;;;21.97;12.73;;;-2.60;99.90;;;;;;8369883;28;20307;-64
2023/12/03 06:29:00;;;;;;;20.73;11.67;;;-2.60;99.90;;;;;;8373051;28;20178;-63
2023/12/03 06:33:00;;;;;;;18.50;10.87;;;-2.60;99.90;;;;;;8365820;28;20203;-63
2023/12/03 06:37:02;;;;;;;20.93;11.07;;;-2.70;99.90;;;;;;8367357;28;20188;-69
2023/12/03 06:41:03;;;;;;;20.23;10.87;;;-2.70;99.90;;;;;;8369367;28;20210;-69
2023/12/03 06:45:06;;;;;;;19.33;11.90;;;-2.60;99.90;;;;;;8371484;28;20190;-68
2023/12/03 06:49:07;;;;;;;24.43;11.17;;;-2.70;99.90;;;;;;8370600;28;20423;-69
2023/12/03 06:53:09;;;;;;;18.43;10.23;;;-2.70;99.90;;;;;;8372709;28;20185;-67
2023/12/03 06:57:10;;;;;;;20.23;10.93;;;-2.70;99.90;;;;;;8381299;28;20184;-71
2023/12/03 07:01:13;;;;;;;18.40;9.97;;;-2.70;99.90;;;;;;8367567;28;20213;-72
2023/12/03 07:05:15;;;;;;;21.30;10.70;;;-2.70;99.90;;;;;;8367186;28;20179;-70
2023/12/03 07:09:16;;;;;;;17.20;9.17;;;-2.70;99.90;;;;;;8363633;28;20653;-71
2023/12/03 07:13:17;;;;;;;16.90;9.33;;;-2.70;99.90;;;;;;8367234;28;20186;-70
2023/12/03 07:17:18;;;;;;;20.00;10.87;;;-2.80;99.90;;;;;;8364829;28;20679;-71
2023/12/03 07:21:19;;;;;;;19.20;10.63;;;-2.80;99.90;;;;;;8372401;28;20210;-70
2023/12/03 07:25:20;;;;;;;17.77;9.93;;;-2.70;99.90;;;;;;8368633;28;20267;-71
2023/12/03 07:29:20;;;;;;;18.57;8.90;;;-2.70;99.90;;;;;;8364882;28;20182;-71
2023/12/03 07:33:21;;;;;;;18.73;9.87;;;-2.60;99.90;;;;;;8369046;28;20183;-70
2023/12/03 07:37:22;;;;;;;18.47;9.40;;;-2.50;99.90;;;;;;8372188;28;20194;-65
2023/12/03 07:41:23;;;;;;;18.13;9.53;;;-2.40;99.90;;;;;;8376849;28;20230;-64
2023/12/03 07:45:24;;;;;;;16.20;8.70;;;-2.40;99.90;;;;;;8379561;28;20282;-64
2023/12/03 07:49:25;;;;;;;13.57;8.43;;;-2.40;99.90;;;;;;8374471;28;20189;-65
2023/12/03 07:53:26;;;;;;;16.23;9.20;;;-2.40;99.90;;;;;;8376377;28;20273;-64
2023/12/03 07:57:35;;;;;;;17.13;9.30;;;-2.40;99.90;;;;;;8380162;28;20274;-65
2023/12/03 08:01:36;;;;;;;15.40;8.97;;;-2.40;99.90;;;;;;8372599;28;20320;-65
2023/12/03 08:05:37;;;;;;;16.90;9.50;;;-2.30;99.90;;;;;;8375079;28;20926;-66
2023/12/03 08:09:39;;;;;;;17.57;9.67;;;-2.30;99.90;;;;;;8381349;28;20199;-66
2023/12/03 08:13:40;;;;;;;19.37;10.37;;;-2.20;99.90;;;;;;8378558;28;20205;-66
2023/12/03 08:17:43;;;;;;;20.03;11.00;;;-2.20;99.90;;;;;;8381868;28;20182;-65
2023/12/03 08:21:47;;;;;;;19.97;10.40;;;-2.20;99.90;;;;;;8379924;28;20205;-64
2023/12/03 08:25:49;;;;;;;14.77;9.20;;;-2.10;99.90;;;;;;8384071;28;20174;-64
2023/12/03 08:29:53;;;;;;;17.93;10.13;;;-2.00;99.90;;;;;;8380421;28;20179;-65
2023/12/03 08:33:53;;;;;;;19.60;10.23;;;-2.10;99.90;;;;;;8374009;28;20188;-64
2023/12/03 08:37:55;;;;;;;18.80;9.67;;;-2.10;99.90;;;;;;8380081;28;20218;-64
2023/12/03 08:42:04;;;;;;;17.47;10.70;;;-2.00;99.90;;;;;;8384762;28;20341;-65
2023/12/03 08:46:11;;;;;;;16.03;10.60;;;-1.90;99.90;;;;;;8383129;28;20180;-64
2023/12/03 08:50:14;;;;;;;18.60;10.40;;;-1.80;99.90;;;;;;8378968;28;20189;-64
2023/12/03 08:54:15;;;;;;;18.03;10.00;;;-1.60;99.90;;;;;;8393027;28;20183;-64
2023/12/03 08:58:16;;;;;;;18.17;10.50;;;-1.40;99.90;;;;;;8382045;28;20181;-69
2023/12/03 09:02:17;;;;;;;18.60;10.97;;;-1.20;99.90;;;;;;8373754;28;20204;-70
2023/12/03 09:06:18;;;;;;;18.40;10.37;;;-1.10;99.90;;;;;;8374148;28;20181;-69
2023/12/03 09:10:21;;;;;;;16.73;10.27;;;-1.10;99.90;;;;;;8370023;28;20173;-69
2023/12/03 09:14:22;;;;;;;17.17;9.90;;;-1.30;99.90;;;;;;8371064;28;20184;-71
2023/12/03 09:18:23;;;;;;;17.67;10.50;;;-1.50;99.90;;;;;;8369452;28;20627;-69
2023/12/03 09:22:24;;;;;;;17.70;11.50;;;-1.70;99.90;;;;;;8371012;28;20215;-69
2023/12/03 09:26:25;;;;;;;19.80;11.43;;;-1.60;99.90;;;;;;8377164;28;20195;-70
2023/12/03 09:30:26;;;;;;;19.83;12.20;;;-1.40;99.90;;;;;;8372861;28;20196;-69
2023/12/03 09:34:27;;;;;;;21.30;12.60;;;-0.90;99.90;;;;;;8377958;28;20207;-70
2023/12/03 09:38:28;;;;;;;19.60;13.07;;;-0.50;99.90;;;;;;8371768;28;20186;-68
2023/12/03 09:42:32;;;;;;;20.43;12.27;;;-0.10;99.90;;;;;;8371321;28;20341;-69
2023/12/03 09:46:37;;;;;;;22.20;13.47;;;0.20;99.90;;;;;;8372847;28;20261;-69
2023/12/03 09:50:42;;;;;;;21.23;12.20;;;0.50;36.60;;;;;;8375795;28;20272;-69
2023/12/03 09:54:45;;;;;;;17.03;10.63;;;0.50;1.00;;;;;;8367706;28;20591;-70
2023/12/03 09:58:47;;;;;;;17.50;10.10;;;0.50;1.00;;;;;;8367165;28;20192;-69
2023/12/03 10:02:52;;;;;;;14.43;9.70;;;0.30;1.00;;;;;;8369615;28;20207;-68
2023/12/03 10:06:58;;;;;;;15.13;9.87;;;-0.10;56.90;;;;;;8373289;28;20178;-68
2023/12/03 10:11:03;;;;;;;14.93;9.87;;;-0.10;99.90;;;;;;8360553;28;20186;-69
2023/12/03 10:15:04;;;;;;;12.80;9.20;;;0.00;99.90;;;;;;8369004;28;20511;-69
2023/12/03 10:19:08;;;;;;;13.00;8.47;;;0.10;99.90;;;;;;8382035;28;20185;-64
2023/12/03 10:23:18;;;;;;;14.43;9.10;;;0.30;77.50;;;;;;8387176;28;20208;-65
2023/12/03 10:27:37;;;;;;;15.87;9.93;;;0.40;1.00;;;;;;8382599;28;20170;-64
2023/12/03 10:31:40;;;;;;;14.47;9.30;;;0.30;1.00;;;;;;8387564;28;20178;-64
2023/12/03 10:35:42;;;;;;;13.33;8.83;;;0.30;24.30;;;;;;8385595;28;20189;-66
2023/12/03 10:39:51;;;;;;;14.93;9.07;;;0.40;66.80;;;;;;8387175;28;20208;-64
2023/12/03 10:43:53;;;;;;;10.90;7.77;;;0.50;45.20;;;;;;8382646;28;20197;-65
2023/12/03 10:48:00;;;;;;;10.70;7.97;;;0.30;51.50;;;;;;8378036;28;20190;-64
2023/12/03 10:52:03;;;;;;;12.53;7.67;;;0.20;92.90;;;;;;8377843;28;20217;-65
2023/12/03 10:56:06;;;;;;;10.93;7.43;;;0.20;88.00;;;;;;8375732;28;20185;-65
2023/12/03 11:00:11;;;;;;;9.57;6.87;;;0.40;99.90;;;;;;8385656;28;20244;-65
2023/12/03 11:04:31;;;;;;;9.73;6.70;;;0.50;99.90;;;;;;8380924;28;20173;-66
2023/12/03 11:08:40;;;;;;;10.57;6.90;;;0.60;99.80;;;;;;8378149;28;20185;-66
2023/12/03 11:12:43;;;;;;;11.83;7.30;;;0.40;99.90;;;;;;8381438;28;20182;-65
2023/12/03 11:17:04;;;;;;;9.00;6.40;;;0.40;99.90;;;;;;8388656;28;20185;-66
2023/12/03 11:21:27;;;;;;;10.00;6.37;;;0.50;99.90;;;;;;8385756;28;20193;-65
2023/12/03 11:25:51;;;;;;;10.70;7.03;;;0.60;99.90;;;;;;8379257;28;20182;-67
2023/12/03 11:29:56;;;;;;;8.37;6.07;;;0.80;99.90;;;;;;8383537;28;20177;-65
2023/12/03 11:34:00;;;;;;;10.17;6.10;;;0.90;99.90;;;;;;8378872;28;20189;-65
2023/12/03 11:38:02;;;;;;;8.63;5.63;;;0.80;31.80;;;;;;8381643;28;20189;-66
2023/12/03 11:42:09;;;;;;;8.90;6.13;;;0.60;12.80;;;;;;8377471;28;20248;-66
2023/12/03 11:46:12;;;;;;;8.40;6.20;;;0.30;99.90;;;;;;8376517;28;20288;-65
2023/12/03 11:50:28;;;;;;;10.07;6.73;;;0.40;99.90;;;;;;8382140;28;20209;-65
2023/12/03 11:55:05;;;;;;;8.37;6.00;;;0.60;99.90;;;;;;8385526;28;20173;-66
2023/12/03 11:59:12;;;;;;;10.23;6.83;;;0.70;93.90;;;;;;8381677;28;20174;-66
2023/12/03 12:03:42;;;;;;;11.30;7.17;;;0.80;34.50;;;;;;8380819;28;20251;-65
2023/12/03 12:08:02;;;;;;;9.80;6.90;;;0.70;48.80;;;;;;8379704;28;20678;-65
2023/12/03 12:12:05;;;;;;;8.63;5.77;;;0.50;89.10;;;;;;8371420;28;20186;-65
2023/12/03 12:16:12;;;;;;;8.67;5.20;;;0.20;99.90;;;;;;8383607;28;20274;-67
2023/12/03 12:20:25;;;;;;;9.30;5.57;;;0.20;99.90;;;;;;8385934;28;20202;-66
2023/12/03 12:24:46;;;;;;;10.07;6.30;;;0.20;99.90;;;;;;8375125;28;20178;-66
2023/12/03 12:28:49;;;;;;;9.03;6.70;;;0.40;99.90;;;;;;8373127;28;20178;-66
2023/12/03 12:32:54;;;;;;;10.00;6.63;;;0.30;99.90;;;;;;8382989;28;20181;-66
2023/12/03 12:37:07;;;;;;;8.80;6.03;;;0.00;99.90;;;;;;8386162;28;20288;-69
2023/12/03 12:41:13;;;;;;;10.10;6.47;;;0.00;99.90;;;;;;8377083;28;20216;-69
2023/12/03 12:45:28;;;;;;;9.63;6.13;;;0.10;99.90;;;;;;8375537;28;20184;-70
2023/12/03 12:49:44;;;;;;;9.23;5.97;;;0.20;99.90;;;;;;8382428;28;20173;-65
2023/12/03 12:54:03;;;;;;;10.30;6.53;;;0.20;99.90;;;;;;8386040;28;20182;-66
2023/12/03 12:58:07;;;;;;;10.80;6.90;;;-0.10;99.90;;;;;;8381735;28;20204;-65
2023/12/03 13:02:27;;;;;;;11.97;6.90;;;-0.20;99.90;;;;;;8376692;28;20205;-67
2023/12/03 13:06:31;;;;;;;11.23;6.77;;;-0.10;99.90;;;;;;8376682;28;20184;-67
2023/12/03 13:10:35;;;;;;;11.13;7.10;;;-0.10;99.90;;;;;;8381360;28;20265;-66
2023/12/03 13:14:37;;;;;;;11.80;7.50;;;-0.20;99.90;;;;;;8382562;28;20264;-67
2023/12/03 13:18:39;;;;;;;11.30;7.97;;;-0.40;99.90;;;;;;8380262;28;20186;-66
2023/12/03 13:22:44;;;;;;;11.00;7.43;;;-0.60;99.90;;;;;;8374621;28;20233;-66
2023/12/03 13:26:45;;;;;;;13.43;8.10;;;-0.80;99.90;;;;;;8367974;28;20480;-66
2023/12/03 13:30:56;;;;;;;12.00;8.27;;;-0.80;99.90;;;;;;8380108;28;20196;-66
2023/12/03 13:34:59;;;;;;;10.83;7.07;;;-0.70;99.90;;;;;;8387669;28;20213;-67
2023/12/03 13:39:05;;;;;;;15.23;8.60;;;-0.60;99.90;;;;;;8384662;28;20230;-65
2023/12/03 13:43:06;;;;;;;13.63;8.63;;;-0.60;99.90;;;;;;8384239;28;20212;-66
2023/12/03 13:47:18;;;;;;;15.00;8.90;;;-0.60;99.90;;;;;;8392228;28;20185;-68
2023/12/03 13:51:34;;;;;;;13.57;9.07;;;-0.60;99.90;;;;;;8383922;28;20185;-66
2023/12/03 13:55:35;;;;;;;15.63;9.80;;;-0.60;99.90;;;;;;8379076;28;20226;-67
2023/12/03 13:59:36;;;;;;;17.20;10.23;;;-0.60;99.90;;;;;;8376426;28;20208;-72
2023/12/03 14:03:41;;;;;;;14.20;9.40;;;-0.70;99.90;;;;;;8371533;28;20231;-73
2023/12/03 14:07:42;;;;;;;18.30;10.80;;;-0.80;99.90;;;;;;8369846;28;20185;-73
2023/12/03 14:11:46;;;;;;;16.60;10.30;;;-0.90;99.90;;;;;;8376025;28;20173;-71
2023/12/03 14:15:48;;;;;;;16.57;10.93;;;-1.00;99.90;;;;;;8374260;28;20186;-71
2023/12/03 14:19:50;;;;;;;17.30;10.17;;;-1.20;99.90;;;;;;8367919;28;20188;-72
2023/12/03 14:23:52;;;;;;;16.47;11.30;;;-1.20;99.90;;;;;;8369604;28;20200;-72
2023/12/03 14:27:52;;;;;;;18.17;10.93;;;-1.20;99.90;;;;;;8369524;28;20192;-70
2023/12/03 14:31:54;;;;;;;16.80;10.40;;;-1.30;99.90;;;;;;8372431;28;20223;-71
2023/12/03 14:35:55;;;;;;;18.37;10.80;;;-1.30;99.90;;;;;;8351065;28;20200;-73
2023/12/03 14:39:55;;;;;;;16.90;10.73;;;-1.40;99.90;;;;;;8367051;28;20192;-72
2023/12/03 14:43:56;;;;;;;16.70;11.03;;;-1.50;99.90;;;;;;8372820;28;20542;-72
2023/12/03 14:47:58;;;;;;;19.30;11.40;;;-1.50;99.90;;;;;;8366785;28;20191;-73
2023/12/03 14:52:00;;;;;;;18.90;11.20;;;-1.50;99.90;;;;;;8371464;28;20407;-74
2023/12/03 14:56:00;;;;;;;16.13;10.10;;;-1.60;99.90;;;;;;8368377;28;20191;-72
2023/12/03 15:00:05;;;;;;;16.30;10.13;;;-1.60;99.90;;;;;;8375039;28;20224;-71
2023/12/03 15:04:06;;;;;;;19.43;11.00;;;-1.60;99.90;;;;;;8367033;28;20193;-73
2023/12/03 15:08:08;;;;;;;16.50;10.97;;;-1.60;99.90;;;;;;8368379;28;20183;-71
2023/12/03 15:12:08;;;;;;;15.30;10.10;;;-1.60;99.90;;;;;;8370501;28;20292;-73
2023/12/03 15:16:12;;;;;;;16.47;10.60;;;-1.60;99.90;;;;;;8370330;28;20188;-71
2023/12/03 15:20:15;;;;;;;16.87;10.93;;;-1.60;99.90;;;;;;8369719;28;20240;-67
2023/12/03 15:24:17;;;;;;;19.80;11.80;;;-1.60;99.90;;;;;;8376544;28;20196;-67
2023/12/03 15:28:19;;;;;;;18.17;11.73;;;-1.60;99.90;;;;;;8369803;28;20268;-67
2023/12/03 15:32:20;;;;;;;19.07;11.03;;;-1.70;99.90;;;;;;8370545;28;20231;-69
2023/12/03 15:36:22;;;;;;;20.93;10.83;;;-1.70;99.90;;;;;;8361594;28;20188;-70
2023/12/03 15:40:23;;;;;;;19.30;12.13;;;-1.70;99.90;;;;;;8366597;28;20216;-65
2023/12/03 15:44:27;;;;;;;17.27;11.27;;;-1.80;99.90;;;;;;8367988;28;20191;-66
2023/12/03 15:48:28;;;;;;;20.43;11.73;;;-1.90;99.90;;;;;;8375223;28;20244;-64
2023/12/03 15:52:29;;;;;;;16.60;10.17;;;-1.90;99.90;;;;;;8375173;28;20191;-66
2023/12/03 15:56:30;;;;;;;16.37;10.10;;;-2.00;99.90;;;;;;8371894;28;20670;-67
2023/12/03 16:00:37;;;;;;;19.90;9.43;;;-2.00;99.90;;;;;;8375392;28;20206;-65
2023/12/03 16:04:38;;;;;;;17.50;10.47;;;-2.00;99.90;;;;;;8366481;28;20190;-68
2023/12/03 16:08:39;;;;;;;20.43;11.83;;;-2.00;99.90;;;;;;8367815;28;20183;-68
2023/12/03 16:12:40;;;;;;;23.37;10.97;;;-1.90;99.90;;;;;;8369173;28;20614;-67
2023/12/03 16:16:45;;;;;;;17.73;11.17;;;-1.90;99.90;;;;;;8370719;28;20292;-67
2023/12/03 16:20:46;;;;;;;20.00;11.60;;;-2.00;99.90;;;;;;8367406;28;20218;-62
2023/12/03 16:24:48;;;;;;;21.33;12.53;;;-1.90;99.90;;;;;;8368200;28;20208;-63
2023/12/03 16:28:49;;;;;;;22.53;11.90;;;-1.90;99.90;;;;;;8365935;28;20218;-63
2023/12/03 16:32:52;;;;;;;18.80;11.67;;;-1.90;99.90;;;;;;8369090;28;20188;-62
2023/12/03 16:36:53;;;;;;;19.40;12.97;;;-2.00;99.90;;;;;;8365377;28;20191;-62
2023/12/03 16:40:55;;;;;;;20.33;11.80;;;-1.90;99.90;;;;;;8368813;28;20219;-62
2023/12/03 16:44:56;;;;;;;20.20;11.80;;;-2.00;99.90;;;;;;8364998;28;20186;-63
2023/12/03 16:48:57;;;;;;;20.10;11.50;;;-2.00;99.90;;;;;;8371417;28;20286;-63
2023/12/03 16:53:00;;;;;;;18.77;10.73;;;-2.00;99.90;;;;;;8368454;28;20192;-63
2023/12/03 16:57:01;;;;;;;19.90;11.93;;;-2.00;99.90;;;;;;8369878;28;20214;-63
2023/12/03 17:01:09;;;;;;;18.17;11.13;;;-2.10;99.90;;;;;;8366805;28;20269;-64
2023/12/03 17:05:10;;;;;;;18.13;10.83;;;-2.20;99.90;;;;;;8373303;28;20239;-64
2023/12/03 17:09:13;;;;;;;21.30;11.83;;;-2.20;99.90;;;;;;8371742;28;20189;-64
2023/12/03 17:13:13;;;;;;;20.53;11.40;;;-2.40;99.90;;;;;;8378660;28;20189;-63
2023/12/03 17:17:15;;;;;;;20.60;11.47;;;-2.50;99.90;;;;;;8371982;28;20173;-63
2023/12/03 17:21:19;;;;;;;19.57;11.20;;;-2.70;99.90;;;;;;8371660;28;20221;-63
2023/12/03 17:25:20;;;;;;;16.40;10.60;;;-2.90;99.90;;;;;;8374851;28;20186;-63
2023/12/03 17:29:21;;;;;;;18.20;10.83;;;-3.00;99.90;;;;;;8372831;28;20187;-70
2023/12/03 17:33:23;;;;;;;18.13;11.57;;;-3.10;99.90;;;;;;8370529;28;20205;-68
2023/12/03 17:37:25;;;;;;;18.93;11.23;;;-3.20;99.90;;;;;;8368272;28;20194;-63
2023/12/03 17:41:27;;;;;;;20.47;11.67;;;-3.20;99.90;;;;;;8373980;28;21759;-64
2023/12/03 17:45:28;;;;;;;19.27;10.60;;;-3.10;99.90;;;;;;8362168;28;20193;-63
2023/12/03 17:49:29;;;;;;;21.47;12.03;;;-3.00;99.90;;;;;;8373527;28;20181;-64
2023/12/03 17:53:30;;;;;;;19.43;11.40;;;-2.80;99.90;;;;;;8370695;28;20244;-63
2023/12/03 17:57:33;;;;;;;20.63;11.83;;;-2.70;99.90;;;;;;8376848;28;20181;-64
2023/12/03 18:01:35;;;;;;;20.00;11.63;;;-2.60;99.90;;;;;;8368068;28;20216;-64
2023/12/03 18:05:36;;;;;;;18.10;10.90;;;-2.60;99.90;;;;;;8371516;28;20170;-63
2023/12/03 18:09:38;;;;;;;18.63;11.07;;;-2.50;99.90;;;;;;8367376;28;20216;-63
2023/12/03 18:13:39;;;;;;;17.70;10.80;;;-2.50;99.90;;;;;;8369896;28;20233;-64
2023/12/03 18:17:41;;;;;;;21.17;11.37;;;-2.40;99.90;;;;;;8372872;28;20564;-63
2023/12/03 18:21:42;;;;;;;19.60;10.60;;;-2.40;99.90;;;;;;8366973;28;20199;-63
2023/12/03 18:25:43;;;;;;;19.73;10.93;;;-2.40;99.90;;;;;;8370550;28;20269;-63
2023/12/03 18:29:44;;;;;;;16.00;10.33;;;-2.40;99.90;;;;;;8371954;28;20186;-63
2023/12/03 18:33:45;;;;;;;20.93;10.57;;;-2.40;99.90;;;;;;8371625;28;20218;-63
2023/12/03 18:37:47;;;;;;;15.67;9.43;;;-2.40;99.90;;;;;;8373880;28;20203;-63
2023/12/03 18:41:50;;;;;;;16.07;9.57;;;-2.40;99.90;;;;;;8374665;28;20223;-64
2023/12/03 18:45:52;;;;;;;16.63;9.30;;;-2.40;99.90;;;;;;8371445;28;20192;-63
2023/12/03 18:49:53;;;;;;;15.33;9.13;;;-2.40;99.90;;;;;;8372716;28;20204;-70
2023/12/03 18:53:54;;;;;;;13.27;8.70;;;-2.40;99.90;;;;;;8372523;28;20188;-70
2023/12/03 18:57:55;;;;;;;15.70;9.67;;;-2.40;99.90;;;;;;8370481;28;20183;-70
2023/12/03 19:02:00;;;;;;;14.00;8.43;;;-2.40;99.90;;;;;;8374574;28;20225;-69
2023/12/03 19:06:02;;;;;;;12.43;8.07;;;-2.40;99.90;;;;;;8370017;28;20249;-69
2023/12/03 19:10:03;;;;;;;13.90;7.97;;;-2.40;99.90;;;;;;8370502;28;20186;-70
2023/12/03 19:14:04;;;;;;;14.60;8.43;;;-2.40;99.90;;;;;;8373142;28;20184;-67
2023/12/03 19:18:07;;;;;;;10.83;6.77;;;-2.50;99.90;;;;;;8374778;28;20185;-69
2023/12/03 19:22:09;;;;;;;12.23;7.97;;;-2.50;99.90;;;;;;8375723;28;20218;-68
2023/12/03 19:26:10;;;;;;;13.17;7.73;;;-2.60;99.90;;;;;;8370080;28;20288;-70
2023/12/03 19:30:11;;;;;;;14.13;7.03;;;-2.70;99.90;;;;;;8367496;28;20178;-68
2023/12/03 19:34:14;;;;;;;9.80;5.70;;;-2.80;99.90;;;;;;8368635;28;20184;-70
2023/12/03 19:38:16;;;;;;;9.23;6.10;;;-2.90;99.90;;;;;;8371214;28;20183;-70
2023/12/03 19:42:16;;;;;;;9.37;5.67;;;-3.10;99.90;;;;;;8373521;28;20224;-69
2023/12/03 19:46:18;;;;;;;11.53;6.47;;;-3.30;99.90;;;;;;8368397;28;20195;-69
2023/12/03 19:50:20;;;;;;;9.57;6.37;;;-3.50;99.90;;;;;;8373618;28;20193;-70
2023/12/03 19:54:23;;;;;;;8.80;5.87;;;-3.60;99.90;;;;;;8373218;28;20215;-69
2023/12/03 19:58:26;;;;;;;10.57;6.10;;;-3.80;99.90;;;;;;8372185;28;20272;-66
2023/12/03 20:02:29;;;;;;;10.03;6.37;;;-4.00;99.90;;;;;;8371810;28;20303;-69
2023/12/03 20:06:30;;;;;;;11.97;6.33;;;-4.30;99.90;;;;;;8365229;28;20196;-70
2023/12/03 20:10:32;;;;;;;11.20;6.20;;;-4.50;99.90;;;;;;8373912;28;20181;-67
2023/12/03 20:14:32;;;;;;;9.33;6.13;;;-4.70;99.90;;;;;;8375396;28;20471;-69
2023/12/03 20:18:33;;;;;;;9.90;5.60;;;-4.90;99.90;;;;;;8373286;28;20189;-68
2023/12/03 20:22:35;;;;;;;9.40;5.73;;;-5.00;99.90;;;;;;8373177;28;20208;-66
2023/12/03 20:26:38;;;;;;;9.10;4.87;;;-5.10;99.90;;;;;;8374913;28;20444;-69
2023/12/03 20:30:40;;;;;;;10.40;6.00;;;-5.30;99.90;;;;;;8375562;28;20185;-68
2023/12/03 20:34:42;;;;;;;9.80;6.40;;;-5.40;99.90;;;;;;8377433;28;20176;-67
2023/12/03 20:38:44;;;;;;;10.83;6.43;;;-5.40;99.90;;;;;;8382436;28;20193;-68
2023/12/03 20:42:45;;;;;;;12.67;7.13;;;-5.30;99.90;;;;;;8384363;28;20212;-66